EST,Max TemperatureF,Mean TemperatureF,Min TemperatureF,Max Dew PointF,MeanDew PointF,Min DewpointF,Max Humidity, Mean Humidity, Min Humidity, Max Sea Level PressureIn, Mean Sea Level PressureIn, Min Sea Level PressureIn, Max VisibilityMiles, Mean VisibilityMiles, Min VisibilityMiles, Max Wind SpeedMPH, Mean Wind SpeedMPH, Max Gust SpeedMPH,PrecipitationIn, CloudCover, Events, WindDirDegrees
2012-12-1,34,22,10,31,15,4,100,87,73,30.52,30.42,30.29,10,10,6,9,4,14,T,8,Snow,52
2012-12-2,45,38,30,45,38,30,100,88,76,30.29,29.99,29.88,10,6,2,24,7,28,0.45,6,Rain,229
2012-12-3,45,38,30,45,36,30,100,96,92,30.23,30.14,29.92,10,6,0,14,4,22,0.01,8,Fog-Rain,230
2012-12-4,58,42,26,51,40,27,100,86,72,30.22,30.01,29.83,10,5,0,22,8,30,0.33,5,Fog-Rain,231
2012-12-5,44,32,20,43,26,14,92,80,68,30.27,30.00,29.83,10,6,1,15,8,25,0.24,8,Rain-Snow,270
2012-12-6,31,24,17,20,15,12,92,75,58,30.38,30.28,30.13,10,9,3,8,1,14,T,3,Snow,239
2012-12-7,36,30,23,30,22,10,88,63,38,30.11,30.02,29.99,10,10,10,18,5,23,0.00,4,,226
2012-12-8,41,36,30,40,34,29,100,88,76,29.99,29.84,29.70,10,8,2,15,3,23,T,8,Rain,236
2012-12-9,35,30,25,34,26,22,96,83,69,30.29,30.13,29.91,10,8,2,14,6,20,0.04,7,Rain-Snow,326
2012-12-10,47,38,28,45,37,27,100,93,85,29.91,29.57,29.44,10,6,2,20,6,32,0.57,8,Rain-Snow,232
2012-12-11,32,26,20,30,21,17,100,92,84,30.16,29.86,29.55,10,8,2,13,6,21,0.01,8,Snow,251
2012-12-12,30,21,11,27,23,9,100,92,84,30.37,30.26,30.17,10,6,0,13,5,20,0.01,7,Fog-Snow,227
2012-12-13,33,27,21,27,24,21,100,89,78,30.43,30.34,30.21,10,8,2,10,5,13,T,4,Snow,224
2012-12-14,33,24,14,29,24,13,96,84,72,30.23,30.12,30.03,10,9,1,12,5,16,0.00,6,,242
2012-12-15,28,21,13,19,14,4,88,75,61,30.34,30.26,30.17,10,10,9,12,4,15,T,4,Snow,47
2012-12-16,34,24,14,32,22,7,100,84,67,30.19,29.99,29.85,10,8,2,12,6,16,0.04,7,Rain-Snow,81
2012-12-17,40,37,33,36,33,30,100,88,76,29.87,29.78,29.70,10,9,2,13,5,17,0.10,7,Rain-Snow,165
2012-12-18,38,34,30,36,33,28,100,96,92,29.67,29.48,29.39,10,6,2,9,4,16,0.25,8,Rain-Snow,26
2012-12-19,31,29,26,29,28,24,92,89,85,30.13,29.79,29.51,10,4,1,10,5,20,0.01,8,Snow,268
2012-12-20,34,28,21,27,22,18,96,80,64,30.22,30.06,29.74,10,10,10,26,6,35,T,6,,168
2012-12-21,43,37,30,36,31,27,100,85,70,29.69,29.08,28.91,10,5,2,22,11,35,0.31,8,Rain-Snow,212
2012-12-22,30,22,14,29,16,9,92,83,74,29.75,29.38,29.00,10,2,0,21,11,31,0.02,8,Fog-Snow,260
2012-12-23,27,20,13,25,16,9,96,88,80,29.87,29.72,29.63,10,3,0,13,7,23,0.03,8,Fog-Snow,241
2012-12-24,21,14,6,17,12,6,100,89,77,30.05,29.97,29.79,10,6,2,10,4,16,T,7,Snow,248
2012-12-25,25,16,7,18,13,5,96,88,80,30.33,30.10,29.89,10,7,1,9,2,13,0.01,6,Snow,18
2012-12-26,20,7,-7,14,6,-9,95,84,73,30.37,30.19,29.86,10,9,1,17,6,23,T,3,Snow,61
2012-12-27,22,20,17,18,16,14,92,88,84,29.88,29.68,29.58,10,2,0,21,8,28,0.42,8,Fog-Snow,44
2012-12-28,20,18,16,18,17,14,92,88,84,30.06,29.96,29.78,10,7,1,12,6,15,0.02,8,Snow,259
2012-12-29,20,18,15,18,17,13,100,92,84,30.01,29.72,29.53,10,2,0,12,4,14,0.15,8,Fog-Snow,53
2012-12-30,15,11,6,10,4,1,92,83,73,30.14,29.81,29.56,10,4,1,13,6,20,T,8,Snow,257
2012-12-31,28,20,12,27,19,9,100,92,84,30.09,29.83,29.61,10,5,1,21,9,26,0.03,8,Rain-Snow,233